KCHK/CHK METAR and TAF weather

Enter ICAO airport designator
Station Type Date Time Source
KCHK METAR 2020/09/20 14:35 UTC NOAA

KCHK 201435Z AUTO 13006KT 5SM BR CLR 16/14 A3020 RMK AO2


Station Type Date Time Source
KCHK Decoded METAR 2020/09/20 14:35 UTC NOAA

Chickasha, Chickasha Municipal Airport, OK, United States (KCHK) 35-05-46N 097-57-58W
Sep 20, 2020 - 10:35 AM EDT / 2020.09.20 1435 UTC
Wind: from the SE (130 degrees) at 7 MPH (6 KT):0
Visibility: 5 mile(s):0
Sky conditions: clear
Weather: mist
Temperature: 60 F (16 C)
Dew Point: 57 F (14 C)
Relative Humidity: 87%
Pressure (altimeter): 30.2 in. Hg (1022 hPa)
ob: KCHK 201435Z AUTO 13006KT 5SM BR CLR 16/14 A3020 RMK AO2
cycle: 14

Station Type Date Time Source
KCHK TAF UTC NOAA

Error!

Example: see airport list